DTMB/MIR METAR and TAF weather

Enter ICAO airport designator
Station Type Date Time Source
DTMB METAR 2020/01/20 13:00 UTC NOAA

DTMB 201300Z 12020KT 8000 SCT030 17/12 Q1023


Station Type Date Time Source
DTMB Decoded METAR 2020/01/20 13:00 UTC NOAA

Habib Bourguiba , Tunisia (DTMB) 35-46N 010-45E
Jan 20, 2020 - 08:00 AM EST / 2020.01.20 1300 UTC
Wind: from the ESE (120 degrees) at 23 MPH (20 KT):0
Visibility: 4 mile(s):0
Sky conditions: partly cloudy
Temperature: 62 F (17 C)
Dew Point: 53 F (12 C)
Relative Humidity: 72%
Pressure (altimeter): 30.21 in. Hg (1023 hPa)
ob: DTMB 201300Z 12020KT 8000 SCT030 17/12 Q1023
cycle: 13

Station Type Date Time Source
DTMB TAF 2020/01/20 12:42 UTC NOAA

TAF TAF DTMB 201100Z 2012/2112 13018KT 8000 SCT030
BECMG 2013/2015 13020G33KT
BECMG 2106/2108 13025G41KT

Example: see airport list